createdAt,value
2018-08-14T00:00:54.121Z,100.00
2018-08-14T00:03:21.155Z,100.00
2018-08-14T00:05:48.648Z,100.00
2018-08-14T00:08:15.987Z,100.00
2018-08-14T00:10:43.029Z,100.00
2018-08-14T00:13:11.359Z,100.00
2018-08-14T00:15:38.549Z,100.00
2018-08-14T00:18:05.693Z,100.00
2018-08-14T00:20:32.735Z,100.00
2018-08-14T00:22:59.771Z,100.00
2018-08-14T00:25:27.155Z,100.00
2018-08-14T00:27:54.223Z,100.00
2018-08-14T00:30:25.423Z,100.00
2018-08-14T00:32:52.600Z,100.00
2018-08-14T00:35:19.703Z,100.00
2018-08-14T00:37:57.279Z,100.00
2018-08-14T00:40:24.661Z,100.00
2018-08-14T00:42:54.312Z,100.00
2018-08-14T00:45:21.479Z,100.00
2018-08-14T00:47:49.276Z,100.00
2018-08-14T00:50:16.486Z,100.00
2018-08-14T00:52:43.800Z,100.00
2018-08-14T00:55:12.203Z,100.00
2018-08-14T00:57:39.819Z,100.00
2018-08-14T01:00:10.297Z,100.00
2018-08-14T01:02:37.827Z,100.00
2018-08-14T01:05:05.316Z,100.00
2018-08-14T01:07:32.336Z,100.00
2018-08-14T01:09:59.502Z,100.00
2018-08-14T01:12:26.535Z,100.00
2018-08-14T01:14:53.572Z,100.00
2018-08-14T01:17:20.685Z,100.00
2018-08-14T01:19:47.687Z,100.00
2018-08-14T01:22:14.744Z,100.00
2018-08-14T01:24:41.805Z,100.00
2018-08-14T01:27:08.887Z,100.00
2018-08-14T01:29:36.000Z,100.00
2018-08-14T01:32:03.083Z,100.00
2018-08-14T01:34:30.137Z,100.00
2018-08-14T01:36:57.201Z,100.00
2018-08-14T01:39:24.249Z,100.00
2018-08-14T01:41:51.276Z,100.00
2018-08-14T01:44:18.357Z,100.00
2018-08-14T01:46:47.765Z,100.00
2018-08-14T01:49:14.842Z,100.00
2018-08-14T01:51:41.826Z,100.00
2018-08-14T01:54:09.193Z,100.00
2018-08-14T01:56:36.551Z,100.00
2018-08-14T01:59:03.658Z,100.00
2018-08-14T02:01:30.743Z,100.00
2018-08-14T02:03:58.200Z,100.00
2018-08-14T02:06:25.256Z,100.00
2018-08-14T02:08:52.251Z,100.00
2018-08-14T02:11:19.305Z,100.00
2018-08-14T02:13:46.323Z,100.00
2018-08-14T02:16:13.388Z,100.00
2018-08-14T02:18:40.427Z,100.00
2018-08-14T02:21:07.447Z,100.00
2018-08-14T02:23:34.467Z,100.00
2018-08-14T02:26:01.501Z,100.00
2018-08-14T02:28:28.534Z,100.00
2018-08-14T02:30:55.661Z,100.00
2018-08-14T02:33:22.739Z,100.00
2018-08-14T02:35:49.767Z,100.00
2018-08-14T02:38:16.792Z,100.00
2018-08-14T02:40:43.848Z,100.00
2018-08-14T02:43:10.855Z,100.00
2018-08-14T02:45:37.866Z,100.00
2018-08-14T02:48:04.927Z,100.00
2018-08-14T02:50:31.948Z,100.00
2018-08-14T02:52:58.984Z,100.00
2018-08-14T02:55:26.047Z,100.00
2018-08-14T02:57:53.354Z,100.00
2018-08-14T03:00:22.976Z,100.00
2018-08-14T03:02:50.065Z,100.00
2018-08-14T03:05:17.121Z,100.00
2018-08-14T03:07:44.164Z,100.00
2018-08-14T03:10:12.268Z,100.00
2018-08-14T03:12:39.302Z,100.00
2018-08-14T03:15:06.882Z,100.00
2018-08-14T03:17:33.937Z,100.00
2018-08-14T03:20:00.973Z,100.00
2018-08-14T03:22:28.131Z,100.00
2018-08-14T03:25:02.038Z,100.00
2018-08-14T03:27:29.094Z,100.00
2018-08-14T03:29:56.170Z,100.00
2018-08-14T03:32:23.244Z,100.00
2018-08-14T03:34:50.315Z,100.00
2018-08-14T03:37:17.427Z,100.00
2018-08-14T03:39:44.428Z,100.00
2018-08-14T03:42:11.464Z,100.00
2018-08-14T03:44:38.566Z,100.00
2018-08-14T03:47:05.854Z,100.00
2018-08-14T03:49:32.915Z,100.00
2018-08-14T03:52:00.152Z,100.00
2018-08-14T03:54:27.331Z,100.00
2018-08-14T03:56:54.647Z,100.00
2018-08-14T03:59:21.672Z,100.00
2018-08-14T04:01:48.705Z,100.00
2018-08-14T04:04:15.807Z,100.00
2018-08-14T04:06:42.944Z,100.00
2018-08-14T04:09:11.335Z,100.00
2018-08-14T04:11:38.623Z,100.00
2018-08-14T04:14:06.140Z,100.00
2018-08-14T04:16:33.291Z,100.00
2018-08-14T04:19:01.232Z,100.00
2018-08-14T04:21:28.237Z,100.00
2018-08-14T04:23:55.269Z,100.00
2018-08-14T04:26:22.603Z,100.00
2018-08-14T04:28:49.652Z,100.00
2018-08-14T04:31:16.698Z,100.00
2018-08-14T04:33:43.789Z,100.00
2018-08-14T04:36:10.807Z,100.00
2018-08-14T04:38:37.796Z,100.00
2018-08-14T04:41:04.891Z,100.00
2018-08-14T04:43:31.879Z,100.00
2018-08-14T04:45:58.971Z,100.00
2018-08-14T04:48:26.016Z,100.00
2018-08-14T04:50:53.023Z,100.00
2018-08-14T04:53:20.043Z,100.00
2018-08-14T04:55:48.200Z,100.00
2018-08-14T04:58:15.224Z,100.00
2018-08-14T05:00:42.281Z,100.00
2018-08-14T05:03:09.362Z,100.00
2018-08-14T05:05:36.376Z,100.00
2018-08-14T05:08:03.415Z,100.00
2018-08-14T05:10:30.463Z,100.00
2018-08-14T05:12:57.480Z,100.00
2018-08-14T05:15:24.501Z,100.00
2018-08-14T05:17:51.724Z,100.00
2018-08-14T05:20:18.787Z,100.00
2018-08-14T05:22:45.783Z,100.00
2018-08-14T05:25:12.816Z,100.00
2018-08-14T05:27:39.891Z,100.00
2018-08-14T05:30:09.537Z,100.00
2018-08-14T05:32:36.660Z,100.00
2018-08-14T05:35:04.402Z,100.00
2018-08-14T05:37:31.467Z,100.00
2018-08-14T05:39:58.473Z,100.00
2018-08-14T05:42:25.639Z,100.00
2018-08-14T05:44:52.669Z,100.00
2018-08-14T05:47:19.728Z,100.00
2018-08-14T05:49:46.845Z,100.00
2018-08-14T05:52:13.916Z,100.00
2018-08-14T05:54:40.984Z,100.00
2018-08-14T05:57:08.003Z,100.00
2018-08-14T05:59:35.090Z,100.00
2018-08-14T06:02:02.147Z,100.00
2018-08-14T06:04:29.227Z,100.00
2018-08-14T06:06:56.566Z,100.00
2018-08-14T06:09:23.568Z,100.00
2018-08-14T06:11:50.568Z,100.00
2018-08-14T06:14:17.664Z,100.00
2018-08-14T06:16:44.738Z,100.00
2018-08-14T06:19:11.727Z,100.00
2018-08-14T06:21:38.751Z,100.00
2018-08-14T06:24:05.835Z,100.00
2018-08-14T06:26:32.829Z,100.00
2018-08-14T06:28:59.896Z,100.00
2018-08-14T06:31:26.921Z,100.00
2018-08-14T06:33:53.917Z,100.00
2018-08-14T06:36:21.039Z,100.00
2018-08-14T06:38:48.380Z,100.00
2018-08-14T06:41:15.439Z,100.00
2018-08-14T06:43:42.418Z,100.00
2018-08-14T06:46:09.504Z,100.00
2018-08-14T06:48:36.565Z,100.00
2018-08-14T06:51:03.656Z,100.00
2018-08-14T06:53:31.061Z,100.00
2018-08-14T06:55:58.151Z,100.00
2018-08-14T06:58:25.211Z,100.00
2018-08-14T07:00:52.224Z,100.00
2018-08-14T07:03:19.250Z,100.00
2018-08-14T07:05:46.233Z,100.00
2018-08-14T07:08:13.443Z,100.00
2018-08-14T07:10:40.467Z,100.00
2018-08-14T07:13:07.554Z,100.00
2018-08-14T07:15:34.760Z,100.00
2018-08-14T07:18:01.797Z,100.00
2018-08-14T07:20:28.806Z,100.00
2018-08-14T07:22:55.928Z,100.00
2018-08-14T07:25:24.103Z,100.00
2018-08-14T07:27:51.482Z,100.00
2018-08-14T07:30:21.725Z,99.32
2018-08-14T07:32:49.137Z,99.36
2018-08-14T07:35:16.183Z,99.17
2018-08-14T07:37:43.459Z,98.64
2018-08-14T07:40:10.871Z,97.80
2018-08-14T07:42:37.860Z,97.39
2018-08-14T07:45:06.692Z,97.93
2018-08-14T07:47:33.695Z,97.27
2018-08-14T07:50:00.820Z,95.90
2018-08-14T07:52:28.190Z,95.62
2018-08-14T07:54:55.223Z,95.62
2018-08-14T07:57:22.303Z,95.73
2018-08-14T07:59:49.395Z,95.20
2018-08-14T08:02:17.224Z,95.79
2018-08-14T08:04:45.487Z,94.82
2018-08-14T08:07:12.816Z,93.16
2018-08-14T08:09:39.863Z,91.95
2018-08-14T08:12:07.526Z,92.60
2018-08-14T08:14:34.785Z,92.95
2018-08-14T08:17:01.825Z,92.62
2018-08-14T08:19:28.863Z,93.52
2018-08-14T08:21:55.958Z,94.00
2018-08-14T08:24:23.104Z,94.34
2018-08-14T08:26:50.261Z,94.93
2018-08-14T08:29:17.519Z,95.12
2018-08-14T08:31:44.664Z,94.49
2018-08-14T08:34:11.836Z,95.02
2018-08-14T08:36:38.918Z,95.20
2018-08-14T08:39:06.604Z,95.35
2018-08-14T08:41:33.830Z,96.10
2018-08-14T08:44:01.338Z,94.53
2018-08-14T08:46:28.473Z,92.40
2018-08-14T08:48:55.809Z,91.68
2018-08-14T08:51:23.053Z,90.97
2018-08-14T08:53:50.202Z,90.12
2018-08-14T08:56:17.235Z,89.24
2018-08-14T08:58:44.215Z,89.01
2018-08-14T09:01:11.511Z,87.72
2018-08-14T09:03:38.721Z,87.69
2018-08-14T09:06:05.979Z,87.59
2018-08-14T09:08:33.078Z,86.97
2018-08-14T09:11:00.183Z,86.79
2018-08-14T09:13:27.345Z,88.46
2018-08-14T09:15:54.640Z,86.27
2018-08-14T09:18:21.680Z,86.72
2018-08-14T09:20:48.665Z,86.44
2018-08-14T09:23:15.700Z,85.50
2018-08-14T09:25:42.825Z,86.46
2018-08-14T09:28:09.864Z,86.20
2018-08-14T09:30:36.919Z,86.76
2018-08-14T09:33:04.060Z,87.87
2018-08-14T09:35:31.098Z,87.77
2018-08-14T09:37:58.131Z,87.17
2018-08-14T09:40:25.417Z,86.80
2018-08-14T09:42:53.438Z,86.36
2018-08-14T09:45:21.062Z,87.74
2018-08-14T09:47:48.100Z,86.41
2018-08-14T09:50:20.675Z,87.15
2018-08-14T09:52:48.048Z,87.96
2018-08-14T09:55:16.092Z,89.35
2018-08-14T09:57:43.599Z,90.14
2018-08-14T10:00:25.675Z,95.02
2018-08-14T10:02:58.270Z,97.92
2018-08-14T10:05:31.096Z,98.17
2018-08-14T10:08:03.816Z,99.24
2018-08-14T10:10:30.891Z,99.20
2018-08-14T10:12:58.026Z,98.05
2018-08-14T10:15:25.073Z,97.11
2018-08-14T10:17:52.108Z,95.36
2018-08-14T10:20:19.119Z,95.68
2018-08-14T10:22:46.154Z,95.48
2018-08-14T10:25:13.636Z,93.12
2018-08-14T10:27:40.747Z,93.93
2018-08-14T10:30:14.308Z,87.96
2018-08-14T10:32:41.636Z,85.60
2018-08-14T10:35:08.632Z,83.83
2018-08-14T10:37:35.729Z,84.13
2018-08-14T10:40:03.860Z,83.02
2018-08-14T10:42:30.903Z,83.43
2018-08-14T10:44:58.924Z,83.14
2018-08-14T10:47:26.290Z,82.18
2018-08-14T10:49:53.407Z,82.72
2018-08-14T10:52:20.539Z,85.13
2018-08-14T10:54:47.565Z,82.68
2018-08-14T10:57:14.591Z,86.20
2018-08-14T10:59:41.703Z,91.29
2018-08-14T11:02:09.404Z,96.08
2018-08-14T11:04:36.473Z,98.17
2018-08-14T11:07:03.583Z,100.00
2018-08-14T11:09:30.828Z,100.00
2018-08-14T11:12:03.524Z,100.00
2018-08-14T11:14:30.624Z,100.00
2018-08-14T11:16:57.655Z,100.00
2018-08-14T11:19:24.993Z,100.00
2018-08-14T11:21:52.186Z,100.00
2018-08-14T11:24:19.258Z,100.00
2018-08-14T11:26:46.276Z,100.00
2018-08-14T11:29:13.374Z,100.00
2018-08-14T11:31:40.403Z,99.64
2018-08-14T11:34:07.475Z,99.08
2018-08-14T11:36:34.507Z,95.99
2018-08-14T11:39:01.568Z,95.71
2018-08-14T11:41:28.556Z,96.69
2018-08-14T11:43:55.625Z,96.04
2018-08-14T11:46:22.644Z,95.25
2018-08-14T11:48:49.672Z,91.33
2018-08-14T11:51:16.701Z,89.90
2018-08-14T11:53:43.759Z,88.50
2018-08-14T11:56:10.751Z,88.56
2018-08-14T11:58:37.807Z,89.04
2018-08-14T12:01:04.873Z,84.72
2018-08-14T12:03:31.948Z,84.84
2018-08-14T12:05:58.961Z,84.25
2018-08-14T12:08:25.955Z,84.31
2018-08-14T12:10:53.041Z,86.13
2018-08-14T12:13:20.019Z,88.14
2018-08-14T12:15:47.080Z,91.24
2018-08-14T12:18:14.079Z,99.35
2018-08-14T12:20:41.336Z,100.00
2018-08-14T12:23:08.399Z,100.00
2018-08-14T12:25:35.477Z,100.00
2018-08-14T12:28:02.575Z,100.00
2018-08-14T12:30:29.634Z,100.00
2018-08-14T12:32:56.807Z,100.00
2018-08-14T12:35:23.907Z,100.00
2018-08-14T12:37:50.980Z,100.00
2018-08-14T12:40:18.027Z,100.00
2018-08-14T12:42:45.130Z,100.00
2018-08-14T12:45:21.357Z,100.00
2018-08-14T12:47:48.927Z,100.00
2018-08-14T12:50:17.203Z,100.00
2018-08-14T12:52:44.278Z,98.12
2018-08-14T12:55:15.016Z,95.38
2018-08-14T12:57:42.326Z,89.35
2018-08-14T13:00:15.371Z,86.50
2018-08-14T13:02:42.444Z,82.11
2018-08-14T13:05:09.474Z,78.76
2018-08-14T13:07:36.546Z,80.29
2018-08-14T13:10:05.567Z,78.53
2018-08-14T13:12:33.008Z,78.00
2018-08-14T13:15:00.079Z,77.41
2018-08-14T13:17:27.267Z,73.31
2018-08-14T13:19:54.552Z,72.72
2018-08-14T13:22:21.559Z,79.96
2018-08-14T13:24:48.631Z,71.27
2018-08-14T13:27:15.774Z,67.33
2018-08-14T13:29:42.954Z,64.54
2018-08-14T13:32:10.060Z,67.40
2018-08-14T13:34:37.075Z,68.23
2018-08-14T13:37:04.485Z,69.19
2018-08-14T13:39:31.549Z,66.62
2018-08-14T13:41:58.632Z,63.86
2018-08-14T13:44:25.652Z,61.23
2018-08-14T13:46:52.660Z,60.70
2018-08-14T13:49:19.708Z,58.76
2018-08-14T13:51:46.756Z,60.41
2018-08-14T13:54:13.785Z,60.75
2018-08-14T13:56:40.804Z,60.90
2018-08-14T13:59:07.891Z,58.25
2018-08-14T14:01:34.887Z,60.71
2018-08-14T14:04:01.919Z,59.16
2018-08-14T14:06:29.038Z,61.41
2018-08-14T14:08:56.081Z,62.69
2018-08-14T14:11:23.108Z,62.71
2018-08-14T14:13:50.600Z,60.46
2018-08-14T14:16:17.790Z,60.25
2018-08-14T14:18:44.768Z,63.65
2018-08-14T14:21:11.834Z,64.25
2018-08-14T14:23:39.013Z,60.84
2018-08-14T14:26:06.242Z,61.68
2018-08-14T14:28:33.269Z,61.35
2018-08-14T14:31:00.276Z,62.25
2018-08-14T14:33:27.272Z,61.43
2018-08-14T14:35:54.648Z,60.80
2018-08-14T14:38:21.731Z,62.19
2018-08-14T14:40:48.827Z,60.68
2018-08-14T14:43:15.924Z,63.25
2018-08-14T14:45:42.959Z,63.46
2018-08-14T14:48:11.092Z,61.06
2018-08-14T14:50:38.100Z,63.33
2018-08-14T14:53:05.716Z,63.25
2018-08-14T14:55:32.960Z,64.63
2018-08-14T14:58:00.043Z,63.51
2018-08-14T15:00:34.126Z,63.77
2018-08-14T15:03:01.164Z,64.26
2018-08-14T15:05:28.439Z,64.80
2018-08-14T15:07:55.482Z,67.17
2018-08-14T15:10:22.550Z,67.14
2018-08-14T15:12:49.659Z,68.61
2018-08-14T15:15:16.722Z,66.57
2018-08-14T15:17:44.358Z,67.67
2018-08-14T15:20:13.678Z,68.15
2018-08-14T15:22:41.627Z,68.98
2018-08-14T15:25:10.232Z,69.56
2018-08-14T15:27:41.883Z,70.01
2018-08-14T15:30:15.056Z,69.41
2018-08-14T15:32:42.049Z,71.02
2018-08-14T15:35:09.053Z,69.72
2018-08-14T15:37:36.155Z,71.33
2018-08-14T15:40:03.475Z,68.96
2018-08-14T15:42:30.498Z,67.43
2018-08-14T15:44:57.518Z,68.10
2018-08-14T15:47:24.526Z,69.68
2018-08-14T15:49:51.915Z,68.69
2018-08-14T15:52:18.972Z,68.11
2018-08-14T15:54:45.995Z,67.08
2018-08-14T15:57:13.024Z,68.02
2018-08-14T15:59:40.033Z,68.92
2018-08-14T16:02:07.056Z,69.35
2018-08-14T16:04:34.136Z,69.12
2018-08-14T16:07:01.149Z,69.18
2018-08-14T16:09:28.157Z,69.65
2018-08-14T16:11:55.183Z,69.61
2018-08-14T16:14:22.196Z,70.42
2018-08-14T16:16:49.278Z,72.25
2018-08-14T16:19:16.956Z,72.65
2018-08-14T16:21:43.973Z,73.08
2018-08-14T16:24:12.376Z,73.54
2018-08-14T16:26:39.472Z,74.31
2018-08-14T16:29:06.724Z,74.66
2018-08-14T16:31:33.869Z,74.84
2018-08-14T16:34:00.896Z,75.15
2018-08-14T16:36:27.990Z,74.43
2018-08-14T16:38:55.047Z,74.10
2018-08-14T16:41:22.089Z,74.02
2018-08-14T16:43:49.118Z,75.26
2018-08-14T16:46:16.187Z,75.32
2018-08-14T16:48:43.211Z,75.11
2018-08-14T16:51:10.265Z,77.03
2018-08-14T16:53:37.403Z,77.90
2018-08-14T16:56:04.419Z,77.38
2018-08-14T16:58:31.456Z,78.40
2018-08-14T17:00:58.539Z,78.36
2018-08-14T17:03:25.551Z,78.26
2018-08-14T17:05:55.549Z,78.39
2018-08-14T17:08:22.771Z,78.61
2018-08-14T17:10:49.863Z,78.89
2018-08-14T17:13:16.973Z,79.35
2018-08-14T17:15:43.992Z,79.59
2018-08-14T17:18:11.022Z,79.66
2018-08-14T17:20:37.123Z,79.98
2018-08-14T17:23:04.322Z,81.43
2018-08-14T17:25:31.339Z,82.78
2018-08-14T17:27:58.407Z,82.03
2018-08-14T17:30:26.607Z,83.27
2018-08-14T17:32:54.657Z,83.66
2018-08-14T17:35:21.707Z,83.85
2018-08-14T17:37:49.560Z,83.90
2018-08-14T17:40:17.979Z,83.79
2018-08-14T17:42:45.854Z,84.88
2018-08-14T17:45:17.715Z,84.06
2018-08-14T17:47:44.689Z,83.86
2018-08-14T17:50:11.687Z,84.19
2018-08-14T17:52:38.700Z,84.59
2018-08-14T17:55:06.753Z,85.19
2018-08-14T17:57:33.839Z,84.85
2018-08-14T18:00:00.911Z,85.09
2018-08-14T18:02:27.966Z,86.00
2018-08-14T18:04:55.069Z,85.71
2018-08-14T18:07:22.083Z,85.60
2018-08-14T18:09:49.096Z,85.81
2018-08-14T18:12:16.143Z,86.80
2018-08-14T18:14:43.247Z,85.70
2018-08-14T18:17:10.223Z,86.08
2018-08-14T18:19:37.354Z,86.33
2018-08-14T18:22:04.357Z,87.36
2018-08-14T18:24:31.391Z,87.45
2018-08-14T18:26:58.454Z,86.70
2018-08-14T18:29:25.398Z,87.44
2018-08-14T18:31:52.404Z,89.47
2018-08-14T18:34:19.440Z,90.45
2018-08-14T18:36:46.624Z,90.85
2018-08-14T18:39:13.603Z,91.68
2018-08-14T18:41:40.660Z,91.62
2018-08-14T18:44:07.778Z,92.47
2018-08-14T18:46:34.808Z,93.13
2018-08-14T18:49:01.839Z,94.52
2018-08-14T18:51:28.874Z,95.31
2018-08-14T18:53:55.903Z,96.15
2018-08-14T18:56:23.109Z,96.18
2018-08-14T18:58:50.169Z,96.27
2018-08-14T19:01:17.164Z,96.70
2018-08-14T19:03:44.174Z,97.07
2018-08-14T19:06:11.205Z,97.07
2018-08-14T19:08:38.208Z,97.13
2018-08-14T19:11:05.219Z,97.47
2018-08-14T19:13:32.247Z,97.52
2018-08-14T19:15:59.243Z,98.54
2018-08-14T19:18:26.242Z,98.49
2018-08-14T19:20:53.256Z,99.23
2018-08-14T19:23:20.393Z,99.43
2018-08-14T19:25:47.389Z,99.85
2018-08-14T19:28:14.452Z,100.00
2018-08-14T19:30:41.466Z,100.00
2018-08-14T19:33:08.530Z,100.00
2018-08-14T19:35:35.585Z,100.00
2018-08-14T19:38:02.631Z,100.00
2018-08-14T19:40:29.680Z,100.00
2018-08-14T19:42:56.850Z,100.00
2018-08-14T19:45:23.843Z,100.00
2018-08-14T19:47:50.901Z,100.00
2018-08-14T19:50:18.667Z,100.00
2018-08-14T19:52:45.700Z,100.00
2018-08-14T19:55:16.410Z,100.00
2018-08-14T19:57:45.112Z,100.00
2018-08-14T20:00:20.185Z,100.00
2018-08-14T20:02:47.251Z,100.00
2018-08-14T20:05:14.664Z,100.00
2018-08-14T20:07:42.049Z,100.00
2018-08-14T20:10:10.177Z,100.00
2018-08-14T20:12:37.267Z,100.00
2018-08-14T20:15:06.010Z,100.00
2018-08-14T20:17:33.047Z,100.00
2018-08-14T20:19:59.998Z,100.00
2018-08-14T20:22:27.123Z,100.00
2018-08-14T20:24:54.136Z,100.00
2018-08-14T20:27:21.186Z,100.00
2018-08-14T20:29:48.196Z,100.00
2018-08-14T20:32:15.212Z,100.00
2018-08-14T20:34:42.207Z,100.00
2018-08-14T20:37:09.403Z,100.00
2018-08-14T20:39:36.412Z,100.00
2018-08-14T20:42:03.424Z,100.00
2018-08-14T20:44:30.535Z,100.00
2018-08-14T20:46:57.595Z,100.00
2018-08-14T20:49:24.680Z,100.00
2018-08-14T20:51:51.710Z,100.00
2018-08-14T20:54:18.839Z,99.93
2018-08-14T20:56:45.911Z,100.00
2018-08-14T20:59:12.905Z,100.00
2018-08-14T21:01:40.032Z,100.00
2018-08-14T21:04:07.156Z,100.00
2018-08-14T21:06:34.203Z,100.00
2018-08-14T21:09:01.232Z,99.97
2018-08-14T21:11:28.290Z,100.00
2018-08-14T21:13:55.300Z,100.00
2018-08-14T21:16:22.954Z,100.00
2018-08-14T21:18:50.476Z,100.00
2018-08-14T21:21:17.493Z,100.00
2018-08-14T21:23:44.531Z,100.00
2018-08-14T21:26:11.622Z,100.00
2018-08-14T21:28:38.680Z,100.00
2018-08-14T21:31:05.718Z,100.00
2018-08-14T21:33:32.860Z,100.00
2018-08-14T21:35:59.852Z,100.00
2018-08-14T21:38:26.871Z,100.00
2018-08-14T21:40:54.200Z,99.91
2018-08-14T21:43:21.181Z,100.00
2018-08-14T21:45:48.211Z,100.00
2018-08-14T21:48:15.240Z,100.00
2018-08-14T21:50:42.325Z,100.00
2018-08-14T21:53:09.366Z,99.38
2018-08-14T21:55:36.401Z,100.00
2018-08-14T21:58:03.514Z,100.00
2018-08-14T22:01:02.954Z,99.28
2018-08-14T22:03:31.027Z,98.71
2018-08-14T22:05:58.158Z,98.73
2018-08-14T22:08:25.215Z,99.18
2018-08-14T22:10:52.235Z,99.24
2018-08-14T22:13:19.311Z,99.48
2018-08-14T22:15:46.353Z,98.81
2018-08-14T22:18:13.370Z,97.84
2018-08-14T22:20:40.640Z,98.08
2018-08-14T22:23:07.711Z,97.16
2018-08-14T22:25:34.773Z,96.51
2018-08-14T22:28:01.808Z,96.56
2018-08-14T22:30:28.907Z,96.37
2018-08-14T22:32:55.922Z,96.73
2018-08-14T22:35:22.994Z,96.14
2018-08-14T22:37:50.033Z,96.12
2018-08-14T22:40:17.031Z,96.03
2018-08-14T22:42:44.019Z,96.71
2018-08-14T22:45:11.133Z,95.93
2018-08-14T22:47:39.001Z,95.43
2018-08-14T22:50:06.555Z,94.33
2018-08-14T22:52:33.668Z,94.86
2018-08-14T22:55:00.757Z,94.46
2018-08-14T22:57:27.758Z,95.64
2018-08-14T22:59:54.803Z,95.91
2018-08-14T23:02:21.902Z,96.08
2018-08-14T23:04:48.920Z,95.75
2018-08-14T23:07:15.933Z,95.84
2018-08-14T23:09:42.940Z,96.08
2018-08-14T23:12:09.979Z,96.22
2018-08-14T23:14:37.004Z,96.07
2018-08-14T23:17:04.524Z,96.06
2018-08-14T23:19:31.598Z,96.30
2018-08-14T23:21:58.618Z,95.25
2018-08-14T23:24:25.632Z,96.77
2018-08-14T23:26:52.723Z,95.93
2018-08-14T23:29:19.752Z,95.91
2018-08-14T23:31:46.848Z,95.99
2018-08-14T23:34:13.927Z,95.64
2018-08-14T23:36:40.944Z,95.41
2018-08-14T23:39:10.275Z,96.12
2018-08-14T23:41:37.473Z,96.04
2018-08-14T23:44:04.822Z,96.21
2018-08-14T23:46:31.849Z,96.22
2018-08-14T23:48:58.844Z,95.80
2018-08-14T23:51:28.067Z,96.10
2018-08-14T23:53:55.256Z,96.46
2018-08-14T23:56:22.560Z,96.14
2018-08-14T23:58:49.635Z,96.30
